Juliaetta, Idaho
Current Conditions -  °F | °C
As of 3:56 AM on Thursday 27 Nov 2014 (Local Time) from KLWS Reporting Station
Scattered Clouds Scattered Clouds  
Wind Chill: 45°   Ceiling: Unl
Heat Index: 48°   Visibility: 10mi
Dew Point: 41°   Wind: 7mph
Humidity: 77%   Direction: 60°ENE
Pressure: 29.96"   Gusts: NA
Location:  46.58°N, 116.71°W
Report Text: KLWS 271156Z AUTO 06006KT 10SM SCT100 09/05 A2996 RMK AO2 SLP152 T00890050 10106 20067 58013
Loading
Personal Weather Stations






























Interactive Weather Map New forecast layout! Learn more

10-Day Weather Forecast

Advertisements
Track Severe Weather on mobile